map of PNQ home
PNQ - Airport
Location
City:  Pune, Maharashtra, India
Name:Lohegaon
ICAO:VAPO
IATA:PNQ

Details
Type:Airport (Aerodrome, Airfield)
Use:Military
Latitude:1834'56"N (18.582111)
Longitude:7355'11"E (73.919697)
Datum:WGS 1984
Elevation:1942 ft (592 m)
Variation:0.32W (WMM2015v2 magnetic declination)
0.03 annual change
Runways:2
Longest:8329 × 150 ft (2539 × 45.5 m), paved

Time
Time Zone:UTC+5:30
Local Time:

Weather
TAF:VAPO 040930Z 0412/0424 12008KT 6000 SCT040
BECMG 0416/0417 VRB02KT

Related Locations
Nearby:
Farthest:IPC: 11804 mi / 18997 km
Easter Island (Isla de Pascua, Rapa Nui) [Mataveri Intl], VS, CL

Find:

   beyond  
but within

Other Information
Maps:
NOTAMs:
Links:
Sources:

  
  • flag of India
  

Sectional Chart

Flight Planning
at skyvector.com

Satellite Image

Google Maps Satellite view

 

Copyright © 2004-2019 Karl L. Swartz. All rights reserved.
The Great Circle Mapper name and logo are trademarks of the Great Circle Mapper.
All other trademarks mentioned herein belong to their respective owners.
Please see credits for attibutions and further copyright information.

  Follow gcmap on Facebook Follow gcmap on Twitter GCmap on LinkedIn

hCard Microformat

Geo Microformat